TimePDT,TemperatureF,Dew PointF,Humidity,Sea Level PressureIn,VisibilityMPH,Wind Direction,Wind SpeedMPH,Gust SpeedMPH,PrecipitationIn,Events,Conditions,WindDirDegrees,DateUTC
12:53 AM,57.0,41.0,55,29.96,10.0,West,16.1,-,N/A,,Clear,260,2011-04-29 07:53:00
1:53 AM,55.0,35.1,47,29.94,10.0,West,23.0,33.4,N/A,,Clear,270,2011-04-29 08:53:00
2:53 AM,53.1,32.0,45,29.93,10.0,West,27.6,33.4,N/A,,Clear,280,2011-04-29 09:53:00
3:53 AM,50.0,33.1,52,29.93,10.0,West,25.3,35.7,N/A,,Clear,280,2011-04-29 10:53:00
4:53 AM,46.9,30.9,54,29.96,10.0,West,21.9,29.9,N/A,,Clear,280,2011-04-29 11:53:00
5:53 AM,45.0,28.9,53,29.98,10.0,WNW,28.8,39.1,N/A,,Clear,290,2011-04-29 12:53:00
6:53 AM,45.0,30.0,56,30.00,10.0,WNW,25.3,35.7,N/A,,Clear,300,2011-04-29 13:53:00
7:53 AM,46.0,30.0,54,30.01,10.0,WNW,27.6,35.7,N/A,,Clear,290,2011-04-29 14:53:00
8:53 AM,50.0,28.0,43,30.01,10.0,West,19.6,28.8,N/A,,Clear,280,2011-04-29 15:53:00
9:53 AM,55.0,27.0,34,29.99,10.0,WNW,19.6,29.9,N/A,,Clear,290,2011-04-29 16:53:00
10:53 AM,60.1,26.1,27,29.97,10.0,WNW,21.9,-,N/A,,Clear,300,2011-04-29 17:53:00
11:53 AM,63.0,23.0,22,29.96,10.0,WNW,24.2,28.8,N/A,,Clear,290,2011-04-29 18:53:00
12:53 PM,66.0,21.0,18,29.94,10.0,WNW,25.3,32.2,N/A,,Clear,290,2011-04-29 19:53:00
1:53 PM,69.1,18.0,14,29.94,10.0,WNW,19.6,26.5,N/A,,Clear,290,2011-04-29 20:53:00
2:53 PM,66.9,19.9,17,29.93,10.0,WNW,27.6,-,N/A,,Clear,290,2011-04-29 21:53:00
3:53 PM,66.9,17.1,15,29.93,10.0,WNW,27.6,32.2,N/A,,Clear,290,2011-04-29 22:53:00
4:53 PM,64.0,15.1,15,29.94,10.0,WNW,29.9,36.8,N/A,,Clear,290,2011-04-29 23:53:00
5:53 PM,61.0,16.0,17,29.95,10.0,WNW,27.6,35.7,N/A,,Clear,290,2011-04-30 00:53:00
6:53 PM,57.0,19.0,23,29.97,10.0,WNW,29.9,35.7,N/A,,Clear,290,2011-04-30 01:53:00
7:53 PM,53.1,23.0,31,29.99,10.0,WNW,24.2,32.2,N/A,,Clear,290,2011-04-30 02:53:00
8:53 PM,51.1,26.1,38,30.01,10.0,West,18.4,26.5,N/A,,Clear,280,2011-04-30 03:53:00
9:53 PM,50.0,28.0,43,30.02,10.0,West,12.7,-,N/A,,Clear,280,2011-04-30 04:53:00
10:53 PM,50.0,28.0,43,30.02,10.0,West,12.7,-,N/A,,Clear,280,2011-04-30 05:53:00
11:53 PM,48.0,28.0,46,30.04,10.0,WNW,6.9,-,N/A,,Clear,300,2011-04-30 06:53:00